createdAt,value
2023-02-14T00:00:13.341Z,20.70
2023-02-14T00:02:42.683Z,25.83
2023-02-14T00:05:11.109Z,21.03
2023-02-14T00:07:39.607Z,19.90
2023-02-14T00:10:08.962Z,23.00
2023-02-14T00:12:37.231Z,21.60
2023-02-14T00:15:23.181Z,22.47
2023-02-14T00:17:54.633Z,21.80
2023-02-14T00:20:23.332Z,23.70
2023-02-14T00:22:51.482Z,24.33
2023-02-14T00:25:19.928Z,23.47
2023-02-14T00:27:48.160Z,23.27
2023-02-14T00:30:16.184Z,24.80
2023-02-14T00:32:44.481Z,25.23
2023-02-14T00:35:13.998Z,25.50
2023-02-14T00:37:42.155Z,22.50
2023-02-14T00:40:10.731Z,23.30
2023-02-14T00:42:38.853Z,22.20
2023-02-14T00:45:07.623Z,22.40
2023-02-14T00:47:35.481Z,24.43
2023-02-14T00:50:05.065Z,23.80
2023-02-14T00:52:34.473Z,25.13
2023-02-14T00:55:02.932Z,23.13
2023-02-14T00:57:30.786Z,27.30
2023-02-14T00:59:58.577Z,26.43
2023-02-14T01:02:26.361Z,27.53
2023-02-14T01:04:54.187Z,21.77
2023-02-14T01:07:22.708Z,23.93
2023-02-14T01:09:51.844Z,23.67
2023-02-14T01:12:19.597Z,26.47
2023-02-14T01:14:47.409Z,24.00
2023-02-14T01:17:15.155Z,22.60
2023-02-14T01:19:43.226Z,24.60
2023-02-14T01:22:10.945Z,25.03
2023-02-14T01:24:38.691Z,24.27
2023-02-14T01:27:07.824Z,23.63
2023-02-14T01:29:35.698Z,23.73
2023-02-14T01:32:03.579Z,27.30
2023-02-14T01:34:31.366Z,25.63
2023-02-14T01:36:59.108Z,24.87
2023-02-14T01:39:27.797Z,27.73
2023-02-14T01:41:56.585Z,28.57
2023-02-14T01:44:57.783Z,29.30
2023-02-14T01:47:27.264Z,27.07
2023-02-14T01:49:58.709Z,26.23
2023-02-14T01:52:28.807Z,25.70
2023-02-14T01:54:59.530Z,29.93
2023-02-14T01:57:30.487Z,29.17
2023-02-14T02:00:21.408Z,28.97
2023-02-14T02:02:49.205Z,27.27
2023-02-14T02:05:23.586Z,27.20
2023-02-14T02:07:52.456Z,29.03
2023-02-14T02:10:20.380Z,30.00
2023-02-14T02:12:49.328Z,30.13
2023-02-14T02:15:18.628Z,27.53
2023-02-14T02:17:54.130Z,24.87
2023-02-14T02:21:04.316Z,29.90
2023-02-14T02:24:09.048Z,27.43
2023-02-14T02:27:00.362Z,29.43
2023-02-14T02:30:09.634Z,29.13
2023-02-14T02:33:10.681Z,30.83
2023-02-14T02:35:55.278Z,27.73
2023-02-14T02:38:36.260Z,30.50
2023-02-14T02:41:09.253Z,31.20
2023-02-14T02:43:43.070Z,33.53
2023-02-14T02:46:32.244Z,28.77
2023-02-14T02:49:05.124Z,31.60
2023-02-14T02:51:55.977Z,30.57
2023-02-14T02:54:30.599Z,32.37
2023-02-14T02:57:01.321Z,30.37
2023-02-14T02:59:31.943Z,31.90
2023-02-14T03:02:10.502Z,32.43
2023-02-14T03:04:55.048Z,34.87
2023-02-14T03:07:39.462Z,31.60
2023-02-14T03:10:12.404Z,36.73
2023-02-14T03:13:06.284Z,34.00
2023-02-14T03:15:42.923Z,32.03
2023-02-14T03:18:15.472Z,32.97
2023-02-14T03:20:47.212Z,34.93
2023-02-14T03:23:21.821Z,36.80
2023-02-14T03:25:59.310Z,30.13
2023-02-14T03:28:31.747Z,32.03
2023-02-14T03:31:04.269Z,32.30
2023-02-14T03:33:34.811Z,31.37
2023-02-14T03:36:05.182Z,33.83
2023-02-14T03:38:36.055Z,32.77
2023-02-14T03:41:05.517Z,32.70
2023-02-14T03:43:36.045Z,33.90
2023-02-14T03:46:07.780Z,29.03
2023-02-14T03:48:36.182Z,33.03
2023-02-14T03:51:04.870Z,33.00
2023-02-14T03:53:36.701Z,27.37
2023-02-14T03:56:08.200Z,33.07
2023-02-14T03:58:39.367Z,30.90
2023-02-14T04:01:10.355Z,30.97
2023-02-14T04:03:40.904Z,33.20
2023-02-14T04:06:09.190Z,30.43
2023-02-14T04:08:38.408Z,35.23
2023-02-14T04:11:06.840Z,32.77
2023-02-14T04:13:35.846Z,31.13
2023-02-14T04:16:03.934Z,30.67
2023-02-14T04:18:49.230Z,31.97
2023-02-14T04:21:17.569Z,33.50
2023-02-14T04:23:46.754Z,31.97
2023-02-14T04:26:14.602Z,32.47
2023-02-14T04:28:42.488Z,32.77
2023-02-14T04:31:11.462Z,35.23
2023-02-14T04:33:40.101Z,39.67
2023-02-14T04:36:08.816Z,37.53
2023-02-14T04:38:38.562Z,34.47
2023-02-14T04:41:07.670Z,32.07
2023-02-14T04:43:35.441Z,37.77
2023-02-14T04:46:03.328Z,36.83
2023-02-14T04:48:31.169Z,36.00
2023-02-14T04:50:59.235Z,36.50
2023-02-14T04:53:27.517Z,35.83
2023-02-14T04:55:55.334Z,37.37
2023-02-14T04:58:24.592Z,36.53
2023-02-14T05:00:52.473Z,39.20
2023-02-14T05:03:20.486Z,39.27
2023-02-14T05:05:48.269Z,38.33
2023-02-14T05:08:16.170Z,41.10
2023-02-14T05:10:43.945Z,42.20
2023-02-14T05:13:11.771Z,38.30
2023-02-14T05:15:41.225Z,42.83
2023-02-14T05:18:09.059Z,42.63
2023-02-14T05:20:37.065Z,43.17
2023-02-14T05:23:05.322Z,39.50
2023-02-14T05:25:33.230Z,41.73
2023-02-14T05:28:01.154Z,42.20
2023-02-14T05:30:30.223Z,44.23
2023-02-14T05:32:59.542Z,46.00
2023-02-14T05:35:27.375Z,45.30
2023-02-14T05:37:55.286Z,44.17
2023-02-14T05:42:49.961Z,44.57
2023-02-14T05:45:17.875Z,47.77
2023-02-14T05:47:45.748Z,47.97
2023-02-14T05:50:15.127Z,46.53
2023-02-14T05:52:42.911Z,45.47
2023-02-14T05:55:11.221Z,43.77
2023-02-14T05:57:39.019Z,41.97
2023-02-14T06:00:08.201Z,40.47
2023-02-14T06:02:37.378Z,41.07
2023-02-14T06:05:05.386Z,39.97
2023-02-14T06:07:34.518Z,47.77
2023-02-14T06:10:02.373Z,42.77
2023-02-14T06:12:30.127Z,42.20
2023-02-14T06:14:57.920Z,41.40
2023-02-14T06:17:25.716Z,39.57
2023-02-14T06:19:53.511Z,40.40
2023-02-14T06:22:21.538Z,40.20
2023-02-14T06:24:50.773Z,42.83
2023-02-14T06:27:18.649Z,48.90
2023-02-14T06:29:46.443Z,43.23
2023-02-14T06:32:14.370Z,43.67
2023-02-14T06:34:42.253Z,43.30
2023-02-14T06:37:10.119Z,46.90
2023-02-14T06:39:37.937Z,45.93
2023-02-14T06:42:07.266Z,47.23
2023-02-14T06:44:35.090Z,43.20
2023-02-14T06:47:02.902Z,89.23
2023-02-14T06:49:30.694Z,79.53
2023-02-14T06:51:58.447Z,57.50
2023-02-14T06:54:26.268Z,89.50
2023-02-14T06:56:54.063Z,194.83
2023-02-14T06:59:23.535Z,265.67
2023-02-14T07:01:51.512Z,259.93
2023-02-14T07:04:19.333Z,349.37
2023-02-14T07:06:47.688Z,118.57
2023-02-14T07:09:18.323Z,65.30
2023-02-14T07:11:46.843Z,543.67
2023-02-14T07:14:14.782Z,404.17
2023-02-14T07:16:43.995Z,670.97
2023-02-14T07:19:11.859Z,233.77
2023-02-14T07:21:39.657Z,419.60
2023-02-14T07:24:07.819Z,453.63
2023-02-14T07:26:35.646Z,110.10
2023-02-14T07:29:03.433Z,65.47
2023-02-14T07:31:32.181Z,51.43
2023-02-14T07:34:01.840Z,214.33
2023-02-14T07:36:29.837Z,181.87
2023-02-14T07:38:57.977Z,259.63
2023-02-14T07:41:25.822Z,500.50
2023-02-14T07:43:53.619Z,372.50
2023-02-14T07:46:21.467Z,149.90
2023-02-14T07:48:51.709Z,395.77
2023-02-14T07:51:20.991Z,180.93
2023-02-14T07:53:48.861Z,144.90
2023-02-14T07:56:16.664Z,73.47
2023-02-14T07:58:44.487Z,476.10
2023-02-14T08:01:12.345Z,468.47
2023-02-14T08:03:40.203Z,340.17
2023-02-14T08:06:08.158Z,413.23
2023-02-14T08:08:37.343Z,602.77
2023-02-14T08:11:05.268Z,629.77
2023-02-14T08:13:33.113Z,648.10
2023-02-14T08:16:07.599Z,232.23
2023-02-14T08:18:37.634Z,520.60
2023-02-14T08:21:06.984Z,443.27
2023-02-14T08:23:35.154Z,450.50
2023-02-14T08:26:04.745Z,247.40
2023-02-14T08:28:33.275Z,242.20
2023-02-14T08:31:01.770Z,194.83
2023-02-14T08:33:29.742Z,120.60
2023-02-14T08:35:57.593Z,398.97
2023-02-14T08:38:25.570Z,67.50
2023-02-14T08:40:53.552Z,286.70
2023-02-14T08:43:22.714Z,264.33
2023-02-14T08:45:53.743Z,254.43
2023-02-14T08:48:23.486Z,118.67
2023-02-14T08:50:51.310Z,163.63
2023-02-14T08:53:19.191Z,315.10
2023-02-14T08:55:47.231Z,149.13
2023-02-14T08:58:15.374Z,169.83
2023-02-14T09:00:44.613Z,85.37
2023-02-14T09:03:12.422Z,281.83
2023-02-14T09:05:40.282Z,117.27
2023-02-14T09:08:08.151Z,132.67
2023-02-14T09:10:36.008Z,255.60
2023-02-14T09:13:03.851Z,270.63
2023-02-14T09:15:31.673Z,408.33
2023-02-14T09:18:00.860Z,227.07
2023-02-14T09:20:28.645Z,72.73
2023-02-14T09:22:57.074Z,153.97
2023-02-14T09:25:24.876Z,407.37
2023-02-14T09:27:52.697Z,582.17
2023-02-14T09:30:20.586Z,265.30
2023-02-14T09:32:48.385Z,259.00
2023-02-14T09:35:17.709Z,92.27
2023-02-14T09:37:44.508Z,74.07
2023-02-14T09:40:14.487Z,327.77
2023-02-14T09:42:49.600Z,200.10
2023-02-14T09:45:20.150Z,150.50
2023-02-14T09:47:51.072Z,230.07
2023-02-14T09:50:25.879Z,78.67
2023-02-14T09:52:57.213Z,137.67
2023-02-14T09:55:27.065Z,73.80
2023-02-14T09:58:05.043Z,111.97
2023-02-14T10:00:37.900Z,252.47
2023-02-14T10:03:40.033Z,140.90
2023-02-14T10:06:16.640Z,157.57
2023-02-14T10:08:55.084Z,239.77
2023-02-14T10:11:25.590Z,176.50
2023-02-14T10:13:57.081Z,240.37
2023-02-14T10:16:27.191Z,194.00
2023-02-14T10:18:57.973Z,114.40
2023-02-14T10:21:30.810Z,273.70
2023-02-14T10:24:03.561Z,170.50
2023-02-14T10:26:34.983Z,67.53
2023-02-14T10:29:04.226Z,158.10
2023-02-14T10:31:37.273Z,307.57
2023-02-14T10:34:09.852Z,246.33
2023-02-14T10:36:50.686Z,380.97
2023-02-14T10:39:30.992Z,317.80
2023-02-14T10:42:02.911Z,128.13
2023-02-14T10:44:45.958Z,184.87
2023-02-14T10:47:25.237Z,126.77
2023-02-14T10:49:59.469Z,299.17
2023-02-14T10:52:34.425Z,227.23
2023-02-14T10:55:10.431Z,155.67
2023-02-14T10:57:42.180Z,180.43
2023-02-14T11:00:20.914Z,192.83
2023-02-14T11:02:52.379Z,202.47
2023-02-14T11:05:26.544Z,511.57
2023-02-14T11:07:58.868Z,320.63
2023-02-14T11:10:28.160Z,287.17
2023-02-14T11:12:56.006Z,360.27
2023-02-14T11:15:27.724Z,161.00
2023-02-14T11:18:10.110Z,323.37
2023-02-14T11:20:38.043Z,155.40
2023-02-14T11:23:19.922Z,434.13
2023-02-14T11:25:51.820Z,483.23
2023-02-14T11:28:21.402Z,535.90
2023-02-14T11:30:50.958Z,373.07
2023-02-14T11:33:31.851Z,309.60
2023-02-14T11:35:59.941Z,406.00
2023-02-14T11:38:31.879Z,84.93
2023-02-14T11:41:00.804Z,110.40
2023-02-14T11:43:34.139Z,106.20
2023-02-14T11:46:17.335Z,102.63
2023-02-14T11:48:57.632Z,87.53
2023-02-14T11:51:31.261Z,77.90
2023-02-14T11:54:04.915Z,172.83
2023-02-14T11:56:48.870Z,68.20
2023-02-14T11:59:26.325Z,101.13
2023-02-14T12:01:54.451Z,179.77
2023-02-14T12:04:24.667Z,370.73
2023-02-14T12:06:52.547Z,60.53
2023-02-14T12:09:28.053Z,95.73
2023-02-14T12:11:57.300Z,68.83
2023-02-14T12:14:26.885Z,87.53
2023-02-14T12:16:59.046Z,64.00
2023-02-14T12:19:34.393Z,147.63
2023-02-14T12:22:04.942Z,63.23
2023-02-14T12:24:37.559Z,107.27
2023-02-14T12:27:15.675Z,83.80
2023-02-14T12:29:47.963Z,207.50
2023-02-14T12:32:22.198Z,232.43
2023-02-14T12:34:50.487Z,215.70
2023-02-14T12:37:23.394Z,127.23
2023-02-14T12:40:05.898Z,68.07
2023-02-14T12:42:43.936Z,83.20
2023-02-14T12:45:15.631Z,92.67
2023-02-14T12:47:50.662Z,69.20
2023-02-14T12:50:45.297Z,89.33
2023-02-14T12:53:31.409Z,103.57
2023-02-14T12:56:07.662Z,72.10
2023-02-14T12:58:46.416Z,66.60
2023-02-14T13:01:38.367Z,68.77
2023-02-14T13:04:27.049Z,222.50
2023-02-14T13:06:56.881Z,62.73
2023-02-14T13:09:35.017Z,59.70
2023-02-14T13:12:11.610Z,64.43
2023-02-14T13:15:02.789Z,89.40
2023-02-14T13:17:37.214Z,61.90
2023-02-14T13:20:30.974Z,59.53
2023-02-14T13:23:01.533Z,59.50
2023-02-14T13:25:33.723Z,83.87
2023-02-14T13:28:05.583Z,138.13
2023-02-14T13:30:35.788Z,71.50
2023-02-14T13:33:09.752Z,59.87
2023-02-14T13:35:37.960Z,104.17
2023-02-14T13:38:12.141Z,57.00
2023-02-14T13:40:40.028Z,186.43
2023-02-14T13:43:09.188Z,271.93
2023-02-14T13:46:03.873Z,285.33
2023-02-14T13:48:31.831Z,124.20
2023-02-14T13:51:01.088Z,166.47
2023-02-14T13:53:35.313Z,403.27
2023-02-14T13:56:06.059Z,260.77
2023-02-14T13:58:36.576Z,134.93
2023-02-14T14:01:31.596Z,301.77
2023-02-14T14:04:01.793Z,85.73
2023-02-14T14:06:29.997Z,157.00
2023-02-14T14:08:58.114Z,72.40
2023-02-14T14:12:02.124Z,69.50
2023-02-14T14:14:36.403Z,80.60
2023-02-14T14:17:27.713Z,109.30
2023-02-14T14:19:57.991Z,233.50
2023-02-14T14:22:26.686Z,229.93
2023-02-14T14:25:00.360Z,412.10
2023-02-14T14:27:31.617Z,229.27
2023-02-14T14:30:02.110Z,74.43
2023-02-14T14:32:31.485Z,109.33
2023-02-14T14:35:00.931Z,72.27
2023-02-14T14:37:29.880Z,132.40
2023-02-14T14:39:58.990Z,69.27
2023-02-14T14:42:29.395Z,156.57
2023-02-14T14:45:00.730Z,165.67
2023-02-14T14:47:30.430Z,265.80
2023-02-14T14:50:01.462Z,61.83
2023-02-14T14:52:33.954Z,205.50
2023-02-14T14:55:02.210Z,63.57
2023-02-14T14:57:30.070Z,169.80
2023-02-14T15:00:19.945Z,192.27
2023-02-14T15:03:05.884Z,85.17
2023-02-14T15:05:36.116Z,231.17
2023-02-14T15:08:21.765Z,75.80
2023-02-14T15:10:52.349Z,78.10
2023-02-14T15:13:37.678Z,131.90
2023-02-14T15:16:07.038Z,66.37
2023-02-14T15:18:34.833Z,102.37
2023-02-14T15:21:03.548Z,94.97
2023-02-14T15:23:31.425Z,118.67
2023-02-14T15:25:59.285Z,186.10
2023-02-14T15:28:28.547Z,146.27
2023-02-14T15:30:58.410Z,133.67
2023-02-14T15:33:28.034Z,195.57
2023-02-14T15:35:56.464Z,114.37
2023-02-14T15:38:25.106Z,75.33
2023-02-14T15:40:54.612Z,78.10
2023-02-14T15:43:27.854Z,288.67
2023-02-14T15:45:58.069Z,207.50
2023-02-14T15:48:29.242Z,77.43
2023-02-14T15:50:59.089Z,70.50
2023-02-14T15:53:33.971Z,77.93
2023-02-14T15:56:10.553Z,82.00
2023-02-14T15:58:40.339Z,76.17
2023-02-14T16:01:09.253Z,72.70
2023-02-14T16:03:43.631Z,73.33
2023-02-14T16:06:17.606Z,74.30
2023-02-14T16:08:46.717Z,96.43
2023-02-14T16:11:15.904Z,65.17
2023-02-14T16:13:45.093Z,80.77
2023-02-14T16:16:14.281Z,130.93
2023-02-14T16:18:45.189Z,66.67
2023-02-14T16:21:18.061Z,63.80
2023-02-14T16:23:47.409Z,71.33
2023-02-14T16:26:15.825Z,75.83
2023-02-14T16:28:43.618Z,72.23
2023-02-14T16:31:17.058Z,72.70
2023-02-14T16:33:46.367Z,71.70
2023-02-14T16:36:19.109Z,150.30
2023-02-14T16:38:47.540Z,72.27
2023-02-14T16:41:19.879Z,73.10
2023-02-14T16:43:48.558Z,123.37
2023-02-14T16:46:18.375Z,136.77
2023-02-14T16:48:52.041Z,69.80
2023-02-14T16:51:20.680Z,132.63
2023-02-14T16:53:48.588Z,160.00
2023-02-14T16:56:25.411Z,112.30
2023-02-14T16:58:53.461Z,193.70
2023-02-14T17:01:21.246Z,76.20
2023-02-14T17:03:50.493Z,160.77
2023-02-14T17:06:21.741Z,118.53
2023-02-14T17:08:50.851Z,97.60
2023-02-14T17:11:18.820Z,89.40
2023-02-14T17:13:47.312Z,138.57
2023-02-14T17:16:16.499Z,128.27
2023-02-14T17:18:47.612Z,105.83
2023-02-14T17:21:18.186Z,68.07
2023-02-14T17:23:45.969Z,113.97
2023-02-14T17:26:14.543Z,71.10
2023-02-14T17:28:42.426Z,130.23
2023-02-14T17:31:10.550Z,85.97
2023-02-14T17:33:39.047Z,110.77
2023-02-14T17:36:08.721Z,74.27
2023-02-14T17:38:39.984Z,70.23
2023-02-14T17:41:14.960Z,74.73
2023-02-14T17:43:43.102Z,108.63
2023-02-14T17:46:11.174Z,68.17
2023-02-14T17:48:38.964Z,82.63
2023-02-14T17:51:08.062Z,80.60
2023-02-14T17:53:35.934Z,61.80
2023-02-14T17:56:10.706Z,76.50
2023-02-14T17:58:39.124Z,71.40
2023-02-14T18:01:09.113Z,85.33
2023-02-14T18:03:37.456Z,77.20
2023-02-14T18:06:06.056Z,351.40
2023-02-14T18:08:35.934Z,90.57
2023-02-14T18:11:05.710Z,257.63
2023-02-14T18:13:35.499Z,458.80
2023-02-14T18:16:03.843Z,238.37
2023-02-14T18:18:31.780Z,50.27
2023-02-14T18:21:01.596Z,50.43
2023-02-14T18:23:30.734Z,205.97
2023-02-14T18:25:59.812Z,371.33
2023-02-14T18:28:28.729Z,344.83
2023-02-14T18:31:04.297Z,96.60
2023-02-14T18:33:32.220Z,39.90
2023-02-14T18:36:02.542Z,105.60
2023-02-14T18:38:30.386Z,43.40
2023-02-14T18:41:03.229Z,35.67
2023-02-14T18:43:31.435Z,38.50
2023-02-14T18:46:05.032Z,142.27
2023-02-14T18:48:33.586Z,45.27
2023-02-14T18:51:06.851Z,68.47
2023-02-14T18:53:35.024Z,84.20
2023-02-14T18:56:05.052Z,43.77
2023-02-14T18:58:32.926Z,41.13
2023-02-14T19:01:01.089Z,67.93
2023-02-14T19:03:30.369Z,32.73
2023-02-14T19:06:00.306Z,36.37
2023-02-14T19:08:28.781Z,61.63
2023-02-14T19:10:56.591Z,47.57
2023-02-14T19:13:27.973Z,82.83
2023-02-14T19:15:56.062Z,51.60
2023-02-14T19:18:25.707Z,58.33
2023-02-14T19:20:55.021Z,386.77
2023-02-14T19:23:22.855Z,354.73
2023-02-14T19:25:50.638Z,181.07
2023-02-14T19:28:18.394Z,89.00
2023-02-14T19:30:46.297Z,34.63
2023-02-14T19:33:14.160Z,207.90
2023-02-14T19:35:41.949Z,40.77
2023-02-14T19:38:11.172Z,44.60
2023-02-14T19:40:39.014Z,35.43
2023-02-14T19:43:07.016Z,34.80
2023-02-14T19:45:34.893Z,42.50
2023-02-14T19:48:03.569Z,44.40
2023-02-14T19:50:31.751Z,51.73
2023-02-14T19:52:59.554Z,38.43
2023-02-14T19:55:29.055Z,32.13
2023-02-14T19:57:57.662Z,36.70
2023-02-14T20:00:25.519Z,36.93
2023-02-14T20:02:54.605Z,78.83
2023-02-14T20:05:23.533Z,104.33
2023-02-14T20:07:52.033Z,41.77
2023-02-14T20:10:20.032Z,48.00
2023-02-14T20:12:49.531Z,33.83
2023-02-14T20:15:17.439Z,39.27
2023-02-14T20:17:45.263Z,40.30
2023-02-14T20:20:13.880Z,64.83
2023-02-14T20:22:41.750Z,35.93
2023-02-14T20:25:09.953Z,130.33
2023-02-14T20:27:37.981Z,95.63
2023-02-14T20:30:09.062Z,27.73
2023-02-14T20:32:37.278Z,185.97
2023-02-14T20:35:05.638Z,39.90
2023-02-14T20:37:33.484Z,98.30
2023-02-14T20:40:01.540Z,37.87
2023-02-14T20:42:29.298Z,33.03
2023-02-14T20:44:57.098Z,32.93
2023-02-14T20:47:26.259Z,46.73
2023-02-14T20:49:54.047Z,27.90
2023-02-14T20:52:21.885Z,37.37
2023-02-14T20:54:49.674Z,46.80
2023-02-14T20:57:17.438Z,52.70
2023-02-14T20:59:45.488Z,51.47
2023-02-14T21:02:13.507Z,65.53
2023-02-14T21:04:42.684Z,40.77
2023-02-14T21:07:10.614Z,45.00
2023-02-14T21:09:38.903Z,63.00
2023-02-14T21:12:07.695Z,92.57
2023-02-14T21:14:35.575Z,55.13
2023-02-14T21:17:04.862Z,82.53
2023-02-14T21:19:32.893Z,177.67
2023-02-14T21:22:02.151Z,206.90
2023-02-14T21:24:30.437Z,409.00
2023-02-14T21:26:58.387Z,118.50
2023-02-14T21:29:26.531Z,144.33
2023-02-14T21:31:54.471Z,127.77
2023-02-14T21:34:22.339Z,107.27
2023-02-14T21:36:50.119Z,203.03
2023-02-14T21:39:20.919Z,309.17
2023-02-14T21:41:48.710Z,183.00
2023-02-14T21:44:40.350Z,368.93
2023-02-14T21:47:08.143Z,279.73
2023-02-14T21:49:53.412Z,392.60
2023-02-14T21:52:21.183Z,246.50
2023-02-14T21:54:50.308Z,147.93
2023-02-14T21:57:18.160Z,450.83
2023-02-14T21:59:45.918Z,89.17
2023-02-14T22:02:13.823Z,322.90
2023-02-14T22:04:43.194Z,168.40
2023-02-14T22:07:11.163Z,217.70
2023-02-14T22:09:38.980Z,74.47
2023-02-14T22:12:08.518Z,66.53
2023-02-14T22:14:36.252Z,300.33
2023-02-14T22:17:04.378Z,160.97
2023-02-14T22:19:32.154Z,184.97
2023-02-14T22:21:59.969Z,54.20
2023-02-14T22:24:27.854Z,235.63
2023-02-14T22:26:55.731Z,123.67
2023-02-14T22:29:24.874Z,52.87
2023-02-14T22:31:52.747Z,54.77
2023-02-14T22:34:20.548Z,97.83
2023-02-14T22:36:48.726Z,57.27
2023-02-14T22:39:17.513Z,38.30
2023-02-14T22:41:45.512Z,43.20
2023-02-14T22:44:14.151Z,54.93
2023-02-14T22:46:43.569Z,62.80
2023-02-14T22:49:11.456Z,81.97
2023-02-14T22:51:40.708Z,51.43
2023-02-14T22:54:12.293Z,54.30
2023-02-14T22:56:42.401Z,189.60
2023-02-14T22:59:15.381Z,128.53
2023-02-14T23:01:44.685Z,118.80
2023-02-14T23:04:12.845Z,126.67
2023-02-14T23:06:40.795Z,55.57
2023-02-14T23:09:10.161Z,65.20
2023-02-14T23:11:39.618Z,96.60
2023-02-14T23:14:25.164Z,175.80
2023-02-14T23:17:12.238Z,54.50
2023-02-14T23:19:57.688Z,58.70
2023-02-14T23:22:27.236Z,80.10
2023-02-14T23:24:57.176Z,58.53
2023-02-14T23:27:26.805Z,65.33
2023-02-14T23:29:54.571Z,158.17
2023-02-14T23:32:23.797Z,53.37
2023-02-14T23:34:51.598Z,47.73
2023-02-14T23:37:19.869Z,116.77
2023-02-14T23:39:47.642Z,228.63
2023-02-14T23:42:16.161Z,260.23
2023-02-14T23:44:44.504Z,124.90
2023-02-14T23:47:13.713Z,117.23
2023-02-14T23:49:43.665Z,256.10
2023-02-14T23:52:13.214Z,346.57
2023-02-14T23:54:41.330Z,425.00
2023-02-14T23:57:09.858Z,90.73
2023-02-14T23:59:38.071Z,177.03
